createdAt,value
2022-10-11T00:01:03.072Z,1006.91
2022-10-11T00:06:03.428Z,1007.00
2022-10-11T00:11:03.159Z,1007.17
2022-10-11T00:16:03.196Z,1007.19
2022-10-11T00:21:02.772Z,1007.11
2022-10-11T00:26:03.308Z,1007.27
2022-10-11T00:31:03.049Z,1007.32
2022-10-11T00:36:03.007Z,1007.43
2022-10-11T00:41:02.475Z,1007.49
2022-10-11T00:46:02.943Z,1007.50
2022-10-11T00:51:02.870Z,1007.46
2022-10-11T00:56:02.785Z,1007.62
2022-10-11T01:01:02.353Z,1007.63
2022-10-11T01:06:02.600Z,1007.50
2022-10-11T01:11:02.105Z,1007.76
2022-10-11T01:16:02.408Z,1007.76
2022-10-11T01:21:01.967Z,1007.73
2022-10-11T01:26:02.354Z,1007.85
2022-10-11T01:31:01.849Z,1007.82
2022-10-11T01:36:02.100Z,1007.90
2022-10-11T01:41:01.845Z,1007.87
2022-10-11T01:46:01.971Z,1007.95
2022-10-11T01:51:01.566Z,1007.98
2022-10-11T01:56:01.901Z,1007.99
2022-10-11T02:01:01.540Z,1008.09
2022-10-11T02:06:01.535Z,1008.08
2022-10-11T02:11:01.292Z,1008.14
2022-10-11T02:16:01.259Z,1008.21
2022-10-11T02:21:01.174Z,1008.25
2022-10-11T02:26:01.260Z,1008.34
2022-10-11T02:31:01.022Z,1008.28
2022-10-11T02:36:08.417Z,1008.35
2022-10-11T02:41:08.004Z,1008.36
2022-10-11T02:46:00.800Z,1008.31
2022-10-11T02:51:00.752Z,1008.46
2022-10-11T02:56:00.667Z,1008.59
2022-10-11T03:01:00.604Z,1008.61
2022-10-11T03:06:00.721Z,1008.66
2022-10-11T03:11:00.509Z,1008.77
2022-10-11T03:16:03.599Z,1008.79
2022-10-11T03:21:00.369Z,1008.93
2022-10-11T03:26:00.292Z,1009.02
2022-10-11T03:31:00.246Z,1009.01
2022-10-11T03:36:00.168Z,1009.20
2022-10-11T03:41:00.101Z,1009.28
2022-10-11T03:46:00.059Z,1009.30
2022-10-11T03:50:59.965Z,1009.39
2022-10-11T03:56:03.411Z,1009.49
2022-10-11T04:01:00.821Z,1009.53
2022-10-11T04:05:59.811Z,1009.53
2022-10-11T04:10:59.704Z,1009.66
2022-10-11T04:15:59.646Z,1009.73
2022-10-11T04:20:59.552Z,1009.78
2022-10-11T04:25:59.476Z,1009.90
2022-10-11T04:30:59.438Z,1009.95
2022-10-11T04:35:59.378Z,1009.87
2022-10-11T04:40:59.280Z,1010.02
2022-10-11T04:45:59.229Z,1010.18
2022-10-11T04:50:59.318Z,1010.14
2022-10-11T04:55:59.073Z,1010.16
2022-10-11T05:00:59.012Z,1010.27
2022-10-11T05:06:03.151Z,1010.37
2022-10-11T05:10:59.909Z,1010.34
2022-10-11T05:15:58.853Z,1010.43
2022-10-11T05:20:58.767Z,1010.47
2022-10-11T05:25:58.694Z,1010.64
2022-10-11T05:30:58.661Z,1010.77
2022-10-11T05:35:58.557Z,1010.81
2022-10-11T05:40:58.473Z,1010.98
2022-10-11T05:45:58.456Z,1010.99
2022-10-11T05:50:58.426Z,1011.09
2022-10-11T05:55:58.455Z,1011.20
2022-10-11T06:00:58.259Z,1011.30
2022-10-11T06:05:58.247Z,1011.33
2022-10-11T06:10:58.103Z,1011.41
2022-10-11T06:16:05.902Z,1011.36
2022-10-11T06:20:57.935Z,1011.64
2022-10-11T06:25:57.866Z,1011.54
2022-10-11T06:30:57.810Z,1011.60
2022-10-11T06:35:57.736Z,1011.60
2022-10-11T06:40:57.687Z,1011.67
2022-10-11T06:45:57.599Z,1011.77
2022-10-11T06:50:59.990Z,1011.77
2022-10-11T06:55:57.469Z,1011.75
2022-10-11T07:00:57.565Z,1011.85
2022-10-11T07:06:02.117Z,1011.90
2022-10-11T07:10:58.274Z,1011.92
2022-10-11T07:15:57.204Z,1011.87
2022-10-11T07:20:57.158Z,1011.94
2022-10-11T07:25:57.075Z,1011.99
2022-10-11T07:30:57.020Z,1011.98
2022-10-11T07:35:56.978Z,1012.04
2022-10-11T07:40:56.919Z,1011.96
2022-10-11T07:45:56.842Z,1012.05
2022-10-11T07:50:57.033Z,1012.08
2022-10-11T07:55:56.702Z,1012.07
2022-10-11T08:00:56.785Z,1012.01
2022-10-11T08:05:56.581Z,1012.05
2022-10-11T08:10:56.510Z,1012.01
2022-10-11T08:15:56.422Z,1012.08
2022-10-11T08:20:56.480Z,1012.00
2022-10-11T08:25:56.317Z,1011.99
2022-10-11T08:30:56.253Z,1012.12
2022-10-11T08:35:56.168Z,1012.10
2022-10-11T08:40:56.109Z,1012.04
2022-10-11T08:45:56.049Z,1011.98
2022-10-11T08:50:55.969Z,1012.14
2022-10-11T08:55:56.222Z,1012.07
2022-10-11T09:00:55.953Z,1012.16
2022-10-11T09:05:55.826Z,1012.12
2022-10-11T09:10:55.952Z,1012.22
2022-10-11T09:15:55.669Z,1012.24
2022-10-11T09:20:55.635Z,1012.19
2022-10-11T09:25:55.514Z,1012.15
2022-10-11T09:30:55.441Z,1012.15
2022-10-11T09:35:55.372Z,1012.06
2022-10-11T09:40:55.316Z,1012.14
2022-10-11T09:45:55.266Z,1012.16
2022-10-11T09:50:55.192Z,1012.10
2022-10-11T09:55:55.115Z,1012.10
2022-10-11T10:00:55.053Z,1012.13
2022-10-11T10:05:54.978Z,1012.16
2022-10-11T10:10:59.261Z,1012.14
2022-10-11T10:15:54.987Z,1012.10
2022-10-11T10:20:54.844Z,1012.13
2022-10-11T10:25:54.687Z,1012.15
2022-10-11T10:30:54.649Z,1012.30
2022-10-11T10:35:54.546Z,1012.24
2022-10-11T10:40:54.511Z,1012.36
2022-10-11T10:45:54.417Z,1012.30
2022-10-11T10:50:54.439Z,1012.27
2022-10-11T10:55:54.424Z,1012.29
2022-10-11T11:00:54.626Z,1012.28
2022-10-11T11:05:54.170Z,1012.28
2022-10-11T11:10:54.125Z,1012.26
2022-10-11T11:15:57.946Z,1012.25
2022-10-11T11:20:54.141Z,1012.17
2022-10-11T11:25:53.882Z,1012.21
2022-10-11T11:30:53.817Z,1012.07
2022-10-11T11:35:53.734Z,1012.19
2022-10-11T11:40:53.674Z,1012.13
2022-10-11T11:45:53.629Z,1012.04
2022-10-11T11:50:53.536Z,1012.15
2022-10-11T11:55:53.472Z,1012.17
2022-10-11T12:00:53.415Z,1012.13
2022-10-11T12:05:53.338Z,1012.04
2022-10-11T12:10:53.286Z,1012.02
2022-10-11T12:15:53.219Z,1011.97
2022-10-11T12:20:53.129Z,1011.97
2022-10-11T12:25:53.093Z,1011.93
2022-10-11T12:30:53.080Z,1011.92
2022-10-11T12:35:52.951Z,1011.93
2022-10-11T12:40:52.952Z,1011.90
2022-10-11T12:45:52.838Z,1011.81
2022-10-11T12:50:52.762Z,1011.88
2022-10-11T12:55:52.690Z,1011.87
2022-10-11T13:00:52.658Z,1011.84
2022-10-11T13:05:53.846Z,1011.89
2022-10-11T13:10:52.677Z,1011.88
2022-10-11T13:15:52.424Z,1011.91
2022-10-11T13:20:52.344Z,1011.96
2022-10-11T13:25:52.329Z,1011.84
2022-10-11T13:30:52.210Z,1011.92
2022-10-11T13:35:52.164Z,1011.80
2022-10-11T13:40:52.114Z,1011.83
2022-10-11T13:45:52.016Z,1011.87
2022-10-11T13:50:52.182Z,1011.79
2022-10-11T13:55:51.906Z,1011.85
2022-10-11T14:00:51.805Z,1011.76
2022-10-11T14:05:51.768Z,1011.76
2022-10-11T14:10:55.792Z,1011.78
2022-10-11T14:15:52.664Z,1011.81
2022-10-11T14:20:59.009Z,1011.78
2022-10-11T14:25:51.478Z,1011.74
2022-10-11T14:30:51.416Z,1011.78
2022-10-11T14:35:51.363Z,1011.76
2022-10-11T14:40:51.291Z,1011.80
2022-10-11T14:45:51.239Z,1011.74
2022-10-11T14:50:51.184Z,1011.77
2022-10-11T14:55:51.102Z,1011.84
2022-10-11T15:00:51.051Z,1011.79
2022-10-11T15:05:51.015Z,1011.88
2022-10-11T15:10:50.908Z,1011.78
2022-10-11T15:15:50.870Z,1011.73
2022-10-11T15:20:50.776Z,1011.80
2022-10-11T15:25:50.702Z,1011.73
2022-10-11T15:30:50.669Z,1011.80
2022-10-11T15:35:50.560Z,1011.80
2022-10-11T15:40:50.508Z,1011.75
2022-10-11T15:45:50.482Z,1011.81
2022-10-11T15:50:50.338Z,1011.85
2022-10-11T15:55:50.265Z,1011.85
2022-10-11T16:00:50.249Z,1011.90
2022-10-11T16:05:50.197Z,1012.05
2022-10-11T16:10:50.095Z,1011.98
2022-10-11T16:15:50.007Z,1012.01
2022-10-11T16:20:50.025Z,1012.03
2022-10-11T16:25:49.879Z,1011.99
2022-10-11T16:30:49.833Z,1012.12
2022-10-11T16:35:49.733Z,1012.07
2022-10-11T16:40:49.917Z,1012.10
2022-10-11T16:45:49.849Z,1012.20
2022-10-11T16:51:10.563Z,1012.27
2022-10-11T16:55:49.537Z,1012.30
2022-10-11T17:00:49.613Z,1012.23
2022-10-11T17:05:49.343Z,1012.39
2022-10-11T17:10:49.273Z,1012.34
2022-10-11T17:15:49.242Z,1012.32
2022-10-11T17:20:49.480Z,1012.35
2022-10-11T17:25:49.188Z,1012.36
2022-10-11T17:30:48.998Z,1012.37
2022-10-11T17:35:49.041Z,1012.52
2022-10-11T17:40:48.929Z,1012.42
2022-10-11T17:45:48.837Z,1012.46
2022-10-11T17:50:50.785Z,1012.52
2022-10-11T17:55:48.703Z,1012.51
2022-10-11T18:00:48.728Z,1012.51
2022-10-11T18:05:48.588Z,1012.46
2022-10-11T18:10:48.596Z,1012.35
2022-10-11T18:15:53.368Z,1012.49
2022-10-11T18:20:49.332Z,1012.52
2022-10-11T18:25:48.294Z,1012.54
2022-10-11T18:30:48.257Z,1012.50
2022-10-11T18:35:48.156Z,1012.51
2022-10-11T18:40:48.434Z,1012.54
2022-10-11T18:45:48.024Z,1012.53
2022-10-11T18:50:47.958Z,1012.58
2022-10-11T18:55:48.070Z,1012.52
2022-10-11T19:00:47.914Z,1012.53
2022-10-11T19:05:47.738Z,1012.44
2022-10-11T19:10:47.761Z,1012.41
2022-10-11T19:15:47.688Z,1012.48
2022-10-11T19:20:47.690Z,1012.54
2022-10-11T19:25:47.497Z,1012.47
2022-10-11T19:30:47.521Z,1012.54
2022-10-11T19:35:47.760Z,1012.53
2022-10-11T19:40:47.312Z,1012.56
2022-10-11T19:45:47.291Z,1012.68
2022-10-11T19:50:47.545Z,1012.67
2022-10-11T19:55:47.097Z,1012.65
2022-10-11T20:00:47.241Z,1012.70
2022-10-11T20:05:47.000Z,1012.68
2022-10-11T20:10:46.885Z,1012.66
2022-10-11T20:15:46.815Z,1012.66
2022-10-11T20:20:46.864Z,1012.73
2022-10-11T20:25:46.768Z,1012.77
2022-10-11T20:30:46.689Z,1012.80
2022-10-11T20:35:46.617Z,1012.86
2022-10-11T20:40:46.527Z,1012.84
2022-10-11T20:45:46.529Z,1012.81
2022-10-11T20:50:46.374Z,1012.86
2022-10-11T20:55:46.305Z,1012.83
2022-10-11T21:00:46.272Z,1012.82
2022-10-11T21:05:46.368Z,1012.86
2022-10-11T21:10:46.100Z,1012.81
2022-10-11T21:15:46.076Z,1012.92
2022-10-11T21:20:46.159Z,1012.86
2022-10-11T21:25:45.903Z,1012.86
2022-10-11T21:30:45.832Z,1012.82
2022-10-11T21:35:45.747Z,1012.81
2022-10-11T21:40:45.834Z,1012.96
2022-10-11T21:45:45.632Z,1012.85
2022-10-11T21:50:45.544Z,1012.85
2022-10-11T21:55:45.564Z,1012.86
2022-10-11T22:00:45.413Z,1012.88
2022-10-11T22:05:45.372Z,1012.91
2022-10-11T22:10:45.598Z,1012.84
2022-10-11T22:15:45.261Z,1012.89
2022-10-11T22:20:45.332Z,1012.84
2022-10-11T22:25:45.167Z,1012.93
2022-10-11T22:30:45.033Z,1012.94
2022-10-11T22:35:44.967Z,1012.98
2022-10-11T22:40:44.981Z,1012.99
2022-10-11T22:45:44.837Z,1013.01
2022-10-11T22:50:44.767Z,1012.95
2022-10-11T22:55:44.752Z,1012.99
2022-10-11T23:00:44.631Z,1013.05
2022-10-11T23:05:44.589Z,1013.01
2022-10-11T23:10:44.568Z,1012.95
2022-10-11T23:15:44.633Z,1013.05
2022-10-11T23:20:44.422Z,1013.07
2022-10-11T23:25:44.304Z,1013.01
2022-10-11T23:30:44.234Z,1013.11
2022-10-11T23:35:44.173Z,1013.08
2022-10-11T23:40:44.179Z,1013.06
2022-10-11T23:45:44.062Z,1013.07
2022-10-11T23:50:44.017Z,1013.06
2022-10-11T23:55:43.914Z,1013.09
